Terminal Aerodrome Forecast
Issued by NWS Charleston, WV

Home | Current Version | Previous Version | Text Only | Print | Product List | Glossary On
Versions: 1 2 3 4 5 6 7 8 9 10 11 12 13 14 15 16 17 18 19 20 21 22 23 24 25 26 27 28 29 30 31 32 33 34 35 36
273
FTUS41 KRLX 241755
TAFHTS
TAF
KHTS 241755Z 2418/2518 03003KT 1/2SM +SHRA FG OVC002
      TEMPO 2418/2420 3SM SHRA BR SCT025 BKN035
     FM242000 00000KT 2SM SHRA BR OVC040
     FM242300 00000KT 3SM -SHRA BR OVC040
     FM250200 17008KT P6SM OVC100
     FM250600 19010G22KT 5SM SHRA BR OVC060
     FM250900 19010G19KT 2SM +SHRA BR OVC035
     FM251400 24010G19KT P6SM OVC008
     FM251600 25009G18KT P6SM BKN140=

USA.gov is the U.S. government's official web portal to all federal, state and local government web resources and services.